Time;durP1;ratioP1;P1;durP2;ratioP2;P2;SDS_P1;SDS_P2;PMS_P1;PMS_P2;Temp;Humidity;BMP_temperature;BMP_pressure;BME280_temperature;BME280_humidity;BME280_pressure;Samples;Min_cycle;Max_cycle;Signal;HPM_P1;HPM_P2
2022/09/01 00:02:20;;;;;;;6.15;2.78;;;18.00;99.90;;;;;;5015454;28;20461;-77
2022/09/01 00:04:46;;;;;;;6.25;2.80;;;18.00;99.90;;;;;;5013496;28;20061;-78
2022/09/01 00:07:13;;;;;;;4.88;2.60;;;18.10;99.90;;;;;;5013820;28;20026;-78
2022/09/01 00:09:39;;;;;;;7.40;2.70;;;18.00;99.90;;;;;;5013091;28;20084;-77
2022/09/01 00:12:07;;;;;;;7.38;2.60;;;18.00;99.90;;;;;;5013711;28;20034;-77
2022/09/01 00:14:36;;;;;;;4.00;2.33;;;18.00;99.90;;;;;;5011519;28;20022;-78
2022/09/01 00:17:06;;;;;;;4.38;2.60;;;18.00;99.90;;;;;;5013134;28;20109;-77
2022/09/01 00:19:32;;;;;;;3.17;2.58;;;18.00;99.90;;;;;;5013216;28;20453;-77
2022/09/01 00:22:00;;;;;;;7.13;2.78;;;18.00;99.90;;;;;;5011919;28;20030;-77
2022/09/01 00:24:27;;;;;;;5.10;2.55;;;18.00;99.90;;;;;;5012441;28;20026;-77
2022/09/01 00:26:54;;;;;;;4.47;2.63;;;18.00;99.90;;;;;;5012192;28;20034;-77
2022/09/01 00:29:20;;;;;;;5.00;2.50;;;18.00;99.90;;;;;;5011858;28;20117;-78
2022/09/01 00:31:46;;;;;;;5.13;2.20;;;17.90;99.90;;;;;;5011649;28;20061;-78
2022/09/01 00:34:14;;;;;;;5.32;2.38;;;17.90;99.90;;;;;;5013190;28;20022;-77
2022/09/01 00:36:41;;;;;;;6.63;2.40;;;17.80;99.90;;;;;;5014019;28;20421;-77
2022/09/01 00:39:07;;;;;;;4.95;2.58;;;17.90;99.90;;;;;;5012639;28;20033;-78
2022/09/01 00:41:37;;;;;;;3.85;2.58;;;17.90;99.90;;;;;;5012500;28;20029;-77
2022/09/01 00:44:10;;;;;;;5.05;2.75;;;17.80;99.90;;;;;;5013022;28;20022;-78
2022/09/01 00:46:49;;;;;;;5.82;3.38;;;17.80;99.90;;;;;;5014579;28;20044;-77
2022/09/01 00:49:29;;;;;;;2.60;2.10;;;17.80;99.90;;;;;;5013904;28;20030;-78
2022/09/01 00:52:14;;;;;;;6.45;3.03;;;17.80;99.90;;;;;;5012542;28;20026;-78
2022/09/01 00:54:44;;;;;;;4.10;2.33;;;17.90;99.90;;;;;;5012613;28;20092;-78
2022/09/01 00:57:12;;;;;;;3.25;2.42;;;17.80;99.90;;;;;;5013874;28;20080;-78
2022/09/01 00:59:51;;;;;;;10.35;3.22;;;17.70;99.90;;;;;;5014361;28;20505;-77
2022/09/01 01:02:17;;;;;;;3.97;2.40;;;17.60;99.90;;;;;;5015586;28;20052;-77
2022/09/01 01:04:43;;;;;;;10.57;2.80;;;17.70;99.90;;;;;;5013164;28;20060;-78
2022/09/01 01:07:10;;;;;;;8.75;2.75;;;17.70;99.90;;;;;;5012903;28;20429;-78
2022/09/01 01:09:39;;;;;;;4.30;2.60;;;17.60;99.90;;;;;;5014611;28;20105;-77
2022/09/01 01:12:07;;;;;;;8.20;2.40;;;17.40;99.90;;;;;;5014432;28;20049;-77
2022/09/01 01:14:35;;;;;;;5.18;2.38;;;17.40;99.90;;;;;;5013920;28;20014;-77
2022/09/01 01:17:02;;;;;;;2.92;2.17;;;17.30;99.90;;;;;;5011955;28;20022;-78
2022/09/01 01:25:21;;;;;;;7.78;2.63;;;17.20;99.90;;;;;;5013472;28;20025;-76
2022/09/01 01:27:47;;;;;;;4.75;2.40;;;17.20;99.90;;;;;;5017096;28;20042;-77
2022/09/01 01:30:15;;;;;;;3.38;2.60;;;17.30;99.90;;;;;;5017292;28;20065;-77
2022/09/01 01:32:42;;;;;;;5.38;2.85;;;17.40;99.90;;;;;;5019388;28;20018;-77
2022/09/01 01:35:13;;;;;;;5.82;2.58;;;17.40;99.90;;;;;;5021557;28;20394;-77
2022/09/01 01:37:45;;;;;;;3.72;2.45;;;17.30;99.90;;;;;;5018969;28;20033;-76
2022/09/01 01:40:17;;;;;;;4.97;2.20;;;17.30;99.90;;;;;;5022144;28;20045;-76
2022/09/01 01:42:45;;;;;;;6.35;2.20;;;17.30;99.90;;;;;;5007225;28;20026;-78
2022/09/01 01:45:14;;;;;;;5.20;2.70;;;17.20;99.90;;;;;;5016965;28;20048;-78
2022/09/01 01:47:41;;;;;;;5.32;2.35;;;17.20;99.90;;;;;;5001165;28;20105;-77
2022/09/01 01:50:08;;;;;;;6.90;2.53;;;17.20;99.90;;;;;;5017159;28;20033;-78
2022/09/01 01:52:35;;;;;;;2.95;2.20;;;17.20;99.90;;;;;;5018906;28;20029;-77
2022/09/01 01:55:01;;;;;;;6.32;2.67;;;17.20;99.90;;;;;;5022629;28;20018;-77
2022/09/01 01:57:31;;;;;;;4.78;2.58;;;17.20;99.90;;;;;;5017045;28;20034;-78
2022/09/01 01:59:57;;;;;;;5.82;2.50;;;17.20;99.90;;;;;;5018792;28;20640;-77
2022/09/01 02:02:24;;;;;;;4.97;2.30;;;17.20;99.90;;;;;;5020687;28;20041;-78
2022/09/01 02:04:49;;;;;;;5.32;2.42;;;17.20;99.90;;;;;;5020020;28;20048;-76
2022/09/01 02:07:16;;;;;;;5.97;2.42;;;17.20;99.90;;;;;;5014674;28;20053;-76
2022/09/01 02:09:45;;;;;;;3.47;2.50;;;17.20;99.90;;;;;;5013027;28;20030;-77
2022/09/01 02:12:11;;;;;;;4.22;2.25;;;17.20;99.90;;;;;;5014236;28;20117;-76
2022/09/01 02:14:37;;;;;;;3.85;2.38;;;17.20;99.90;;;;;;5014209;28;20058;-78
2022/09/01 02:17:05;;;;;;;5.20;2.35;;;17.10;99.90;;;;;;5012728;28;20030;-77
2022/09/01 02:19:31;;;;;;;2.33;2.05;;;17.10;99.90;;;;;;5012635;28;20030;-76
2022/09/01 02:21:59;;;;;;;4.68;2.78;;;17.10;99.90;;;;;;5013231;28;20025;-79
2022/09/01 02:24:25;;;;;;;5.75;2.72;;;17.10;99.90;;;;;;4996806;28;20034;-78
2022/09/01 02:26:51;;;;;;;4.80;2.17;;;17.10;99.90;;;;;;5043790;22;20046;-80
2022/09/01 02:29:21;;;;;;;2.85;2.15;;;17.10;99.90;;;;;;5019636;28;20037;-82
2022/09/01 02:31:50;;;;;;;3.75;2.10;;;17.10;99.90;;;;;;5036950;28;20080;-82
2022/09/01 02:34:17;;;;;;;8.18;2.80;;;17.20;99.90;;;;;;5005963;28;20026;-78
2022/09/01 02:36:48;;;;;;;6.75;2.42;;;17.20;99.90;;;;;;5038120;28;20037;-80
2022/09/01 02:39:25;;;;;;;3.83;2.45;;;17.20;99.90;;;;;;5005330;28;20022;-81
2022/09/01 02:41:52;;;;;;;4.47;2.53;;;17.20;99.90;;;;;;5018075;28;20038;-80
2022/09/01 02:44:23;;;;;;;4.38;2.45;;;17.20;99.90;;;;;;5013390;28;20076;-85
2022/09/01 02:46:49;;;;;;;5.80;2.70;;;17.20;99.90;;;;;;5017678;28;20026;-84
2022/09/01 02:49:28;;;;;;;5.80;2.05;;;17.20;99.90;;;;;;5007633;28;20030;-82
2022/09/01 02:51:58;;;;;;;3.00;2.20;;;17.20;99.90;;;;;;5014070;28;20030;-84
2022/09/01 02:54:26;;;;;;;4.93;2.60;;;17.20;99.90;;;;;;5020335;28;20014;-79
2022/09/01 02:56:53;;;;;;;3.50;2.10;;;17.20;99.90;;;;;;5021622;28;20049;-80
2022/09/01 02:59:23;;;;;;;4.03;2.17;;;17.20;99.90;;;;;;5021759;28;20010;-81
2022/09/01 03:01:50;;;;;;;5.68;2.22;;;17.20;99.90;;;;;;5012650;28;20113;-87
2022/09/01 03:04:18;;;;;;;3.10;2.22;;;17.20;99.90;;;;;;5011130;28;20025;-86
2022/09/01 03:06:45;;;;;;;7.93;2.42;;;17.20;99.90;;;;;;5028584;28;20040;-83
2022/09/01 03:09:15;;;;;;;3.38;2.33;;;17.10;99.90;;;;;;5015263;28;20042;-80
2022/09/01 03:11:44;;;;;;;6.15;2.40;;;17.20;99.90;;;;;;5031677;28;20341;-81
2022/09/01 03:14:11;;;;;;;2.63;2.03;;;17.20;99.90;;;;;;4998951;28;20037;-81
2022/09/01 03:16:38;;;;;;;5.07;2.10;;;17.10;99.90;;;;;;5005248;28;20026;-84
2022/09/01 03:19:09;;;;;;;2.67;2.10;;;17.10;99.90;;;;;;5031072;28;20037;-84
2022/09/01 03:21:41;;;;;;;4.07;2.10;;;17.10;99.90;;;;;;4996547;28;20026;-82
2022/09/01 03:24:14;;;;;;;7.40;2.50;;;17.10;99.90;;;;;;5030839;28;20034;-84
2022/09/01 03:26:41;;;;;;;7.30;2.60;;;17.10;99.90;;;;;;4997261;28;20049;-83
2022/09/01 03:29:07;;;;;;;5.80;2.60;;;17.10;99.90;;;;;;5031208;28;20089;-82
2022/09/01 03:31:33;;;;;;;7.40;2.15;;;17.10;99.90;;;;;;5031132;28;20114;-83
2022/09/01 03:34:02;;;;;;;5.05;2.42;;;17.00;99.90;;;;;;5008363;28;20026;-84
2022/09/01 03:36:32;;;;;;;4.93;2.45;;;17.00;99.90;;;;;;5028356;28;20084;-86
2022/09/01 03:38:59;;;;;;;4.30;2.45;;;17.00;99.90;;;;;;5009691;28;20082;-84
2022/09/01 03:41:29;;;;;;;6.75;2.40;;;17.10;99.90;;;;;;5008413;28;20033;-86
2022/09/01 03:43:56;;;;;;;4.07;2.67;;;17.10;99.90;;;;;;4991227;28;20026;-82
2022/09/01 03:46:25;;;;;;;5.30;2.22;;;17.10;99.90;;;;;;5009254;28;20097;-85
2022/09/01 03:48:54;;;;;;;4.57;2.40;;;17.10;99.90;;;;;;5028304;28;20052;-84
2022/09/01 03:51:21;;;;;;;2.88;2.15;;;17.10;99.90;;;;;;5010456;28;20033;-86
2022/09/01 03:53:53;;;;;;;4.50;2.50;;;17.00;99.90;;;;;;5012712;28;20028;-82
2022/09/01 03:56:20;;;;;;;4.00;2.40;;;17.00;99.90;;;;;;5034407;28;20049;-82
2022/09/01 03:58:47;;;;;;;3.47;2.22;;;17.10;99.90;;;;;;5036505;28;20018;-82
2022/09/01 04:01:15;;;;;;;4.53;2.33;;;17.20;99.90;;;;;;5001746;28;20093;-85
2022/09/01 04:03:43;;;;;;;3.75;2.63;;;17.10;99.90;;;;;;5025702;28;20030;-82
2022/09/01 04:06:09;;;;;;;3.53;1.90;;;17.10;99.90;;;;;;4997699;28;20034;-86
2022/09/01 04:08:35;;;;;;;6.32;2.40;;;17.20;99.90;;;;;;5034273;28;20072;-82
2022/09/01 04:11:10;;;;;;;7.07;2.42;;;17.20;99.90;;;;;;5004692;28;20065;-82
2022/09/01 04:13:38;;;;;;;;;;;17.20;99.90;;;;;;4980228;28;20485;-81
2022/09/01 04:16:09;;;;;;;4.65;2.35;;;17.20;99.90;;;;;;4996159;28;19941;-81
2022/09/01 04:18:38;;;;;;;3.67;1.92;;;17.20;99.90;;;;;;4996521;28;20093;-83
2022/09/01 04:21:06;;;;;;;4.38;2.58;;;17.20;99.90;;;;;;4995725;28;20054;-80
2022/09/01 04:23:35;;;;;;;5.80;2.45;;;17.10;99.90;;;;;;4988830;28;20030;-80
2022/09/01 04:26:10;;;;;;;5.00;2.03;;;17.00;99.90;;;;;;4995028;28;20030;-83
2022/09/01 04:28:39;;;;;;;5.97;2.67;;;17.00;99.90;;;;;;4994925;28;20039;-82
2022/09/01 04:31:18;;;;;;;6.60;2.50;;;17.00;99.90;;;;;;5010234;28;20034;-87
2022/09/01 04:33:48;;;;;;;2.85;2.00;;;17.10;99.90;;;;;;4995534;28;20030;-87
2022/09/01 04:36:26;;;;;;;8.45;2.53;;;17.00;99.90;;;;;;4996735;28;20058;-88
2022/09/01 04:39:00;;;;;;;3.05;2.58;;;17.00;99.90;;;;;;5015225;28;20022;-88
2022/09/01 04:41:34;;;;;;;4.57;2.47;;;17.00;99.90;;;;;;4994342;28;20045;-87
2022/09/01 04:44:04;;;;;;;5.70;2.42;;;17.00;99.90;;;;;;4996704;28;20026;-87
2022/09/01 04:46:39;;;;;;;5.25;2.30;;;17.00;99.90;;;;;;5013860;28;20034;-85
2022/09/01 04:49:09;;;;;;;7.72;2.45;;;17.00;99.90;;;;;;5030368;28;20041;-88
2022/09/01 04:51:42;;;;;;;4.40;2.22;;;16.90;99.90;;;;;;5030831;28;20018;-87
2022/09/01 04:54:13;;;;;;;5.85;2.10;;;17.00;99.90;;;;;;5009630;28;20483;-85
2022/09/01 04:56:43;;;;;;;6.15;2.42;;;16.90;99.90;;;;;;5007856;28;20030;-86
2022/09/01 04:59:15;;;;;;;4.97;2.23;;;17.00;99.90;;;;;;5007051;28;20030;-87
2022/09/01 05:01:46;;;;;;;4.30;1.92;;;17.00;99.90;;;;;;5001196;28;20022;-85
2022/09/01 05:04:20;;;;;;;3.53;2.10;;;17.00;99.90;;;;;;5011174;28;20022;-85
2022/09/01 05:06:49;;;;;;;3.70;2.15;;;17.00;99.90;;;;;;5012863;28;20022;-88
2022/09/01 05:09:18;;;;;;;8.40;2.47;;;17.10;99.90;;;;;;5002975;28;20006;-87
2022/09/01 05:12:11;;;;;;;6.53;2.40;;;17.10;99.90;;;;;;4997552;28;20037;-87
2022/09/01 05:14:47;;;;;;;9.65;2.17;;;17.20;99.90;;;;;;5011284;28;20026;-87
2022/09/01 05:17:17;;;;;;;8.35;2.85;;;17.20;99.90;;;;;;5007983;28;20023;-85
2022/09/01 05:19:49;;;;;;;4.70;2.33;;;17.20;99.90;;;;;;5010941;28;20014;-85
2022/09/01 05:22:18;;;;;;;4.50;1.85;;;17.30;99.90;;;;;;5015498;28;20026;-88
2022/09/01 05:24:51;;;;;;;4.57;2.28;;;17.30;99.90;;;;;;5000741;28;20015;-88
2022/09/01 05:27:17;;;;;;;4.97;2.55;;;17.30;99.90;;;;;;5002143;28;20060;-86
2022/09/01 05:29:45;;;;;;;5.15;2.10;;;17.50;99.90;;;;;;5004420;28;20021;-85
2022/09/01 05:32:12;;;;;;;5.38;2.28;;;17.60;99.90;;;;;;5011019;28;20080;-83
2022/09/01 05:34:41;;;;;;;4.07;2.03;;;17.50;99.90;;;;;;5001290;28;20086;-86
2022/09/01 05:37:08;;;;;;;5.68;2.00;;;17.50;99.90;;;;;;4995376;28;20022;-88
2022/09/01 05:39:36;;;;;;;3.67;2.28;;;17.60;99.90;;;;;;4999151;28;20049;-86
2022/09/01 05:42:06;;;;;;;3.83;1.80;;;17.80;99.90;;;;;;5034305;28;20037;-88
2022/09/01 05:44:34;;;;;;;3.88;2.53;;;17.80;99.90;;;;;;5033584;28;20029;-86
2022/09/01 05:47:02;;;;;;;5.35;2.20;;;17.80;99.90;;;;;;4999257;28;20069;-88
2022/09/01 05:49:31;;;;;;;5.18;1.83;;;17.90;99.90;;;;;;5012730;28;20037;-86
2022/09/01 05:51:59;;;;;;;7.20;1.92;;;17.90;99.90;;;;;;5004593;28;20029;-87
2022/09/01 05:54:28;;;;;;;4.40;1.88;;;17.90;99.90;;;;;;5018984;28;20418;-88
2022/09/01 05:56:58;;;;;;;4.30;2.00;;;17.90;99.90;;;;;;5022957;28;20025;-86
2022/09/01 05:59:30;;;;;;;5.75;2.10;;;17.90;99.90;;;;;;4999117;28;20054;-85
2022/09/01 06:02:16;;;;;;;4.80;2.28;;;17.90;99.90;;;;;;5019397;28;20081;-86
2022/09/01 06:04:42;;;;;;;4.72;1.77;;;18.00;99.90;;;;;;4988900;28;20309;-87
2022/09/01 06:07:18;;;;;;;5.35;2.30;;;18.00;99.90;;;;;;4987653;28;20104;-86
2022/09/01 06:09:49;;;;;;;7.65;2.05;;;18.10;99.90;;;;;;5012079;28;20686;-86
2022/09/01 06:12:22;;;;;;;7.75;2.10;;;18.10;99.90;;;;;;4989557;28;20002;-87
2022/09/01 06:14:50;;;;;;;4.03;1.98;;;18.10;99.90;;;;;;5018998;28;20026;-87
2022/09/01 06:17:23;;;;;;;4.35;2.35;;;18.10;99.90;;;;;;4976746;28;20046;-88
2022/09/01 06:19:52;;;;;;;3.60;1.52;;;18.20;99.90;;;;;;4997245;28;20022;-87
2022/09/01 06:22:19;;;;;;;3.83;1.65;;;18.20;99.90;;;;;;5003616;28;20032;-89
2022/09/01 06:24:47;;;;;;;7.93;1.60;;;18.20;99.90;;;;;;4999329;28;20021;-88
2022/09/01 06:27:16;;;;;;;8.80;2.33;;;18.30;99.90;;;;;;5018072;28;20056;-87
2022/09/01 06:29:44;;;;;;;3.42;1.75;;;18.30;99.90;;;;;;5004786;28;20038;-87
2022/09/01 06:32:11;;;;;;;6.65;1.98;;;18.30;99.90;;;;;;4999122;28;20022;-88
2022/09/01 06:34:43;;;;;;;11.40;2.00;;;18.40;99.90;;;;;;5014528;28;20029;-88
2022/09/01 06:37:11;;;;;;;5.60;1.85;;;18.60;99.90;;;;;;5015083;28;20026;-89
2022/09/01 06:39:38;;;;;;;4.05;2.00;;;18.60;99.90;;;;;;5003240;28;20022;-88
2022/09/01 06:42:05;;;;;;;6.30;1.80;;;18.70;99.90;;;;;;5005243;28;20053;-87
2022/09/01 06:44:41;;;;;;;1.98;1.30;;;18.80;99.90;;;;;;4982370;28;20105;-87
2022/09/01 06:47:08;;;;;;;5.85;2.00;;;18.90;99.90;;;;;;5012392;28;20022;-88
2022/09/01 06:49:35;;;;;;;3.95;1.73;;;19.00;99.90;;;;;;5006743;28;20065;-87
2022/09/01 06:52:05;;;;;;;4.93;1.60;;;19.00;99.90;;;;;;4993735;28;20030;-89
2022/09/01 06:54:33;;;;;;;4.40;1.70;;;19.00;99.90;;;;;;4977061;28;20030;-89
2022/09/01 06:57:04;;;;;;;4.85;1.77;;;19.00;99.90;;;;;;4992136;28;20455;-86
2022/09/01 06:59:31;;;;;;;7.00;2.05;;;19.10;99.90;;;;;;4996125;28;20073;-84
2022/09/01 07:02:00;;;;;;;4.30;2.10;;;19.10;99.90;;;;;;4999766;28;20022;-83
2022/09/01 07:04:48;;;;;;;7.72;2.17;;;19.20;99.90;;;;;;5000156;28;20039;-83
2022/09/01 07:07:15;;;;;;;3.42;1.98;;;19.20;99.90;;;;;;5000142;28;20029;-85
2022/09/01 07:09:59;;;;;;;8.48;1.73;;;19.20;99.90;;;;;;5016112;28;20045;-87
2022/09/01 07:12:40;;;;;;;4.72;1.98;;;19.20;99.90;;;;;;4998180;28;20022;-85
2022/09/01 07:15:07;;;;;;;3.03;1.70;;;19.30;99.90;;;;;;4983443;28;20045;-87
2022/09/01 07:17:33;;;;;;;3.50;1.67;;;19.20;99.90;;;;;;4998336;28;20065;-85
2022/09/01 07:19:59;;;;;;;4.07;1.60;;;19.20;99.90;;;;;;4996971;28;20041;-88
2022/09/01 07:22:25;;;;;;;5.55;1.70;;;19.30;99.90;;;;;;4996617;28;20027;-88
2022/09/01 07:24:56;;;;;;;4.18;1.50;;;19.40;99.90;;;;;;4995738;28;20050;-86
2022/09/01 07:27:33;;;;;;;5.18;1.88;;;19.40;99.90;;;;;;5012217;28;20034;-86
2022/09/01 07:30:00;;;;;;;8.32;2.20;;;19.50;99.90;;;;;;4994268;28;20035;-88
2022/09/01 07:32:26;;;;;;;5.72;2.22;;;19.60;99.90;;;;;;5009605;28;20447;-87
2022/09/01 07:34:53;;;;;;;7.57;1.70;;;19.60;99.90;;;;;;4972531;28;20031;-88
2022/09/01 07:37:21;;;;;;;3.90;1.63;;;19.70;99.90;;;;;;4987759;28;20093;-87
2022/09/01 07:39:48;;;;;;;9.75;2.15;;;19.60;99.90;;;;;;4987836;28;20045;-88
2022/09/01 07:42:46;;;;;;;7.30;1.80;;;19.70;99.90;;;;;;4941347;28;20039;-87
2022/09/01 07:45:31;;;;;;;2.17;1.60;;;19.80;99.90;;;;;;5009824;28;20033;-87
2022/09/01 07:48:02;;;;;;;3.35;1.52;;;19.90;99.90;;;;;;4992296;28;20042;-86
2022/09/01 07:50:46;;;;;;;7.20;1.50;;;20.00;99.90;;;;;;4992450;28;20030;-85
2022/09/01 07:53:18;;;;;;;3.33;1.75;;;20.20;99.90;;;;;;4994386;28;20031;-86
2022/09/01 07:55:48;;;;;;;5.28;1.50;;;20.30;99.90;;;;;;4996179;28;20098;-87
2022/09/01 07:58:14;;;;;;;6.53;1.67;;;20.30;99.90;;;;;;4979616;28;20038;-86
2022/09/01 08:00:46;;;;;;;7.57;1.95;;;20.40;99.90;;;;;;4978212;28;20034;-85
2022/09/01 08:03:17;;;;;;;4.15;1.60;;;20.50;99.90;;;;;;4993623;28;20073;-87
2022/09/01 08:05:46;;;;;;;9.27;1.55;;;20.50;99.90;;;;;;4990853;28;20495;-88
2022/09/01 08:08:12;;;;;;;7.22;1.30;;;20.60;99.40;;;;;;4987948;28;20034;-85
2022/09/01 08:10:40;;;;;;;6.45;1.70;;;20.60;99.00;;;;;;4987653;28;20034;-85
2022/09/01 08:13:07;;;;;;;2.42;1.40;;;20.70;98.70;;;;;;4989142;28;20026;-86
2022/09/01 08:15:33;;;;;;;4.28;1.20;;;20.70;98.20;;;;;;4972083;28;20029;-86
2022/09/01 08:17:59;;;;;;;8.10;1.48;;;20.70;97.80;;;;;;5006152;28;20026;-87
2022/09/01 08:20:29;;;;;;;3.08;1.35;;;20.70;97.80;;;;;;4991167;28;20026;-86
2022/09/01 08:22:59;;;;;;;2.70;1.50;;;20.70;97.60;;;;;;4987993;28;20041;-86
2022/09/01 08:25:35;;;;;;;2.45;1.23;;;20.90;97.40;;;;;;4990430;28;20034;-87
2022/09/01 08:28:01;;;;;;;11.07;1.20;;;20.90;96.80;;;;;;5044831;22;20057;-81
2022/09/01 08:30:31;;;;;;;3.83;1.38;;;20.90;96.70;;;;;;5021738;28;20026;-82
2022/09/01 08:32:59;;;;;;;11.27;1.83;;;21.00;96.80;;;;;;5017860;28;20036;-83
2022/09/01 08:35:28;;;;;;;5.00;1.60;;;21.10;96.70;;;;;;5001418;28;20085;-82
2022/09/01 08:37:56;;;;;;;2.72;1.40;;;21.00;95.90;;;;;;5021384;28;20425;-82
2022/09/01 08:40:24;;;;;;;2.45;1.40;;;21.00;95.30;;;;;;5021082;28;20080;-81
2022/09/01 08:43:09;;;;;;;2.30;1.40;;;21.10;95.40;;;;;;5005057;28;20030;-82
2022/09/01 08:45:47;;;;;;;5.00;2.90;;;21.20;95.10;;;;;;5020218;28;20030;-82
2022/09/01 08:48:26;;;;;;;3.05;1.30;;;21.20;94.60;;;;;;5004195;28;20280;-81
2022/09/01 08:50:59;;;;;;;3.05;1.50;;;21.20;94.20;;;;;;5024362;28;20030;-81
2022/09/01 08:54:00;;;;;;;2.40;1.15;;;21.20;94.40;;;;;;5010631;28;20030;-83
2022/09/01 08:56:26;;;;;;;1.08;0.93;;;21.30;93.40;;;;;;5020955;28;20033;-83
2022/09/01 08:58:53;;;;;;;3.03;1.08;;;21.50;92.90;;;;;;5025334;28;20090;-80
2022/09/01 09:02:05;;;;;;;2.38;1.38;;;21.60;93.10;;;;;;5029549;28;20057;-81
2022/09/01 09:04:34;;;;;;;11.15;1.65;;;21.60;93.00;;;;;;5025650;28;20402;-80
2022/09/01 09:07:04;;;;;;;2.85;1.05;;;21.70;92.80;;;;;;5019519;28;20026;-81
2022/09/01 09:09:42;;;;;;;3.08;1.25;;;21.80;90.80;;;;;;5020519;28;20057;-81
2022/09/01 09:12:50;;;;;;;4.60;1.83;;;21.90;90.80;;;;;;5019260;28;20026;-80
2022/09/01 09:15:46;;;;;;;2.03;1.38;;;22.20;90.90;;;;;;5018504;28;20057;-82
2022/09/01 09:18:31;;;;;;;1.55;1.17;;;22.80;90.10;;;;;;5020415;28;20076;-81
2022/09/01 09:21:15;;;;;;;2.28;1.38;;;23.20;89.30;;;;;;5023880;28;20053;-80
2022/09/01 09:23:46;;;;;;;3.90;1.67;;;24.10;86.60;;;;;;5023072;28;20415;-82
2022/09/01 09:26:12;;;;;;;3.20;1.58;;;24.80;84.90;;;;;;5021386;28;20025;-81
2022/09/01 09:28:39;;;;;;;2.35;1.50;;;25.90;82.60;;;;;;5022885;28;20084;-82
2022/09/01 09:31:30;;;;;;;6.32;1.48;;;26.50;79.60;;;;;;5017930;28;20038;-82
2022/09/01 09:33:56;;;;;;;3.60;1.33;;;27.20;77.70;;;;;;5018970;28;20030;-81
2022/09/01 09:36:35;;;;;;;2.17;1.30;;;28.20;73.80;;;;;;5021169;28;20423;-80
2022/09/01 09:39:11;;;;;;;3.28;1.20;;;28.90;71.70;;;;;;5020402;28;20072;-84
2022/09/01 09:41:39;;;;;;;3.53;1.50;;;29.40;69.70;;;;;;5018710;28;20033;-79
2022/09/01 09:44:47;;;;;;;3.28;1.60;;;30.50;68.00;;;;;;5020716;28;20552;-81
2022/09/01 09:47:33;;;;;;;5.03;1.95;;;31.30;64.80;;;;;;4981689;28;20061;-80
2022/09/01 09:50:17;;;;;;;2.42;1.45;;;32.20;63.30;;;;;;5021665;28;20243;-79
2022/09/01 09:52:45;;;;;;;2.17;1.50;;;33.20;60.30;;;;;;5020689;28;20033;-82
2022/09/01 09:55:28;;;;;;;3.78;1.52;;;34.10;58.30;;;;;;5021905;28;20022;-81
2022/09/01 09:57:58;;;;;;;1.95;1.25;;;33.70;56.00;;;;;;5021879;28;20109;-83
2022/09/01 10:00:35;;;;;;;4.30;1.30;;;34.00;56.10;;;;;;5023107;28;20033;-80
2022/09/01 10:03:05;;;;;;;2.90;1.55;;;34.40;55.40;;;;;;5027256;28;20500;-81
2022/09/01 10:05:39;;;;;;;2.25;1.10;;;34.60;54.30;;;;;;5026995;28;20030;-81
2022/09/01 10:08:08;;;;;;;;;;;34.70;53.30;;;;;;5025454;28;20042;-82
2022/09/01 10:10:49;;;;;;;4.20;1.10;;;35.30;52.30;;;;;;5027599;28;19910;-79
2022/09/01 10:13:22;;;;;;;1.42;1.00;;;34.60;51.50;;;;;;5018603;28;20542;-82
2022/09/01 10:15:52;;;;;;;1.98;1.08;;;32.60;53.50;;;;;;5015173;28;20030;-83
2022/09/01 10:18:25;;;;;;;4.97;1.10;;;32.90;53.60;;;;;;5019220;28;20057;-82
2022/09/01 10:21:00;;;;;;;1.60;1.13;;;34.20;52.70;;;;;;5016722;28;20033;-79
2022/09/01 10:23:28;;;;;;;2.50;1.20;;;35.00;51.40;;;;;;5015105;28;20133;-83
2022/09/01 10:26:08;;;;;;;5.60;1.98;;;35.30;50.70;;;;;;5015153;28;20025;-83
2022/09/01 10:28:52;;;;;;;3.97;1.35;;;34.40;51.00;;;;;;5013159;28;20041;-82
2022/09/01 10:31:20;;;;;;;4.68;1.15;;;33.90;51.70;;;;;;5015302;28;20032;-84
2022/09/01 10:33:47;;;;;;;1.98;1.27;;;33.70;51.50;;;;;;5022619;28;20041;-81
2022/09/01 10:36:15;;;;;;;7.13;1.73;;;32.30;52.40;;;;;;5022140;28;20018;-82
2022/09/01 10:38:42;;;;;;;3.08;1.38;;;31.90;53.40;;;;;;5020571;28;20038;-80
2022/09/01 10:41:09;;;;;;;1.55;1.05;;;32.50;52.30;;;;;;5015712;28;20337;-82
2022/09/01 10:43:47;;;;;;;3.38;1.30;;;32.10;51.80;;;;;;5009611;28;20046;-83
2022/09/01 10:46:22;;;;;;;3.63;1.05;;;32.70;52.00;;;;;;5009073;28;20030;-84
2022/09/01 10:48:53;;;;;;;2.45;1.30;;;34.30;51.30;;;;;;5005988;28;20075;-83
2022/09/01 10:51:18;;;;;;;3.42;1.58;;;35.20;49.20;;;;;;5007115;28;20100;-84
2022/09/01 10:53:58;;;;;;;3.95;1.23;;;34.10;49.90;;;;;;5011063;28;20019;-84
2022/09/01 10:56:41;;;;;;;2.50;1.55;;;32.20;51.10;;;;;;5034611;28;20026;-81
2022/09/01 10:59:21;;;;;;;3.10;1.42;;;31.40;52.20;;;;;;5009111;28;20022;-84
2022/09/01 11:01:47;;;;;;;5.50;1.50;;;32.00;52.00;;;;;;5010886;28;20364;-81
2022/09/01 11:04:39;;;;;;;3.58;1.08;;;32.70;50.90;;;;;;5007465;28;20076;-82
2022/09/01 11:07:20;;;;;;;;;;;32.60;51.20;;;;;;5018509;28;20053;-82
2022/09/01 11:10:14;;;;;;;3.17;1.30;;;32.50;51.30;;;;;;5017635;28;19972;-82
2022/09/01 11:13:06;;;;;;;2.00;1.20;;;33.40;50.30;;;;;;5028041;28;20029;-81
2022/09/01 11:15:39;;;;;;;8.55;1.50;;;34.50;49.80;;;;;;5006404;28;20051;-82
2022/09/01 11:18:13;;;;;;;5.88;1.38;;;35.20;49.40;;;;;;5006489;28;20041;-81
2022/09/01 11:20:41;;;;;;;2.85;1.15;;;35.90;48.60;;;;;;5006636;28;20271;-82
2022/09/01 11:23:19;;;;;;;5.20;1.20;;;36.20;48.10;;;;;;5012493;28;20056;-82
2022/09/01 11:25:47;;;;;;;5.07;1.40;;;36.50;48.10;;;;;;5018891;28;20037;-81
2022/09/01 11:28:15;;;;;;;2.55;1.60;;;36.80;47.20;;;;;;5017958;28;20107;-83
2022/09/01 11:30:57;;;;;;;7.72;1.40;;;37.00;46.80;;;;;;5008829;28;20034;-83
2022/09/01 11:33:51;;;;;;;2.85;1.30;;;36.80;46.90;;;;;;5000106;28;20026;-82
2022/09/01 11:36:30;;;;;;;3.85;1.58;;;35.60;47.60;;;;;;4999148;28;20023;-83
2022/09/01 11:39:16;;;;;;;4.75;2.00;;;35.20;48.40;;;;;;5001391;28;20106;-83
2022/09/01 11:42:09;;;;;;;6.18;1.38;;;36.20;47.20;;;;;;4995083;28;20133;-82
2022/09/01 11:45:01;;;;;;;3.35;1.40;;;36.80;46.50;;;;;;5003096;28;20053;-81
2022/09/01 11:47:37;;;;;;;3.30;1.52;;;36.70;46.40;;;;;;5004970;28;20038;-82
2022/09/01 11:50:06;;;;;;;2.38;1.20;;;36.70;45.90;;;;;;5031361;28;20030;-83
2022/09/01 11:52:37;;;;;;;1.55;1.25;;;37.20;45.70;;;;;;5007012;28;20088;-82
2022/09/01 11:55:05;;;;;;;2.95;1.15;;;38.10;45.20;;;;;;5006795;28;20018;-84
2022/09/01 11:57:37;;;;;;;2.28;1.42;;;38.40;45.00;;;;;;5018563;28;20447;-83
2022/09/01 12:00:10;;;;;;;3.42;1.33;;;37.70;45.10;;;;;;5011873;28;20453;-83
2022/09/01 12:02:44;;;;;;;3.88;1.40;;;37.50;45.00;;;;;;5014345;28;20058;-82
2022/09/01 12:05:28;;;;;;;;;;;36.60;45.10;;;;;;5020065;28;20040;-81
2022/09/01 12:07:55;;;;;;;4.43;1.50;;;36.40;45.00;;;;;;5023732;28;20008;-82
2022/09/01 12:10:43;;;;;;;2.70;1.08;;;36.00;45.40;;;;;;5017707;28;20073;-81
2022/09/01 12:13:13;;;;;;;2.65;1.25;;;34.10;46.20;;;;;;5019430;28;20045;-80
2022/09/01 12:15:43;;;;;;;2.47;1.60;;;32.00;48.40;;;;;;5017222;28;20401;-81
2022/09/01 12:18:12;;;;;;;2.55;0.95;;;32.30;49.00;;;;;;5017509;28;20088;-82
2022/09/01 12:20:38;;;;;;;1.38;0.90;;;33.40;48.10;;;;;;5017698;28;20033;-80
2022/09/01 12:23:24;;;;;;;2.55;0.95;;;34.30;46.80;;;;;;5019915;28;20046;-82
2022/09/01 12:25:52;;;;;;;1.98;1.10;;;33.40;46.40;;;;;;5026088;28;20034;-83
2022/09/01 12:28:18;;;;;;;1.88;1.10;;;33.00;47.60;;;;;;5018274;28;20037;-81
2022/09/01 12:30:44;;;;;;;2.03;1.00;;;33.70;47.20;;;;;;5016272;28;20038;-82
2022/09/01 12:33:13;;;;;;;2.03;1.15;;;33.60;46.50;;;;;;5016935;28;20018;-81
2022/09/01 12:35:39;;;;;;;3.67;1.30;;;32.20;48.00;;;;;;5008425;28;20424;-83
2022/09/01 12:38:22;;;;;;;4.57;1.30;;;32.30;48.00;;;;;;5007157;28;20026;-81
2022/09/01 12:40:52;;;;;;;2.08;1.00;;;33.50;47.60;;;;;;5019624;28;20097;-81
2022/09/01 12:43:32;;;;;;;3.60;1.20;;;34.50;47.00;;;;;;5021648;28;20030;-81
2022/09/01 12:46:00;;;;;;;1.35;0.90;;;36.20;46.10;;;;;;5021111;28;20030;-82
2022/09/01 12:48:40;;;;;;;5.43;1.02;;;36.90;44.50;;;;;;5020432;28;20026;-81
2022/09/01 12:51:14;;;;;;;5.68;0.90;;;36.90;44.30;;;;;;5016739;28;20018;-81
2022/09/01 12:53:49;;;;;;;3.72;1.20;;;37.00;44.50;;;;;;5011371;28;20045;-81
2022/09/01 12:56:18;;;;;;;6.13;1.35;;;36.80;44.50;;;;;;5010411;28;20041;-82
2022/09/01 12:58:48;;;;;;;4.43;1.20;;;36.10;44.60;;;;;;5010963;28;20007;-80
2022/09/01 13:01:31;;;;;;;1.67;0.93;;;36.50;44.00;;;;;;5012909;28;20081;-82
2022/09/01 13:04:23;;;;;;;2.63;1.10;;;37.20;43.90;;;;;;5010119;28;20085;-82
2022/09/01 13:06:50;;;;;;;3.65;1.45;;;37.80;43.80;;;;;;5011228;28;20498;-82
2022/09/01 13:09:16;;;;;;;1.90;0.85;;;37.80;43.80;;;;;;5008107;28;20030;-83
2022/09/01 13:11:42;;;;;;;2.00;1.05;;;37.30;44.40;;;;;;5009018;28;20086;-82
2022/09/01 13:14:08;;;;;;;1.33;0.93;;;35.80;44.60;;;;;;5009682;28;20517;-82
2022/09/01 13:16:36;;;;;;;1.20;0.90;;;34.60;45.40;;;;;;5008783;28;20046;-82
2022/09/01 13:19:02;;;;;;;5.68;1.20;;;32.90;46.20;;;;;;5008502;28;20023;-83